Garden City Regional Airport
KGCK : rendu visible

Aérodrome :











RETROUVEZ-NOUS SUR...

 
LOGIN :

S'inscrire | Disclaimer

   EN    FR    IT 

 









Légende :    VFR   VFR Marginal   IFR   IFR Intensif   IFR Très Intensif
Visi : 
Plafond : 
>= 8 km
>= 3000ft
5 à 8 km
1000 à 3000 ft
1500m à 5 km
500 à 1000 ft
800 à 1500m
200 à 500 ft
< 800m
< 200 ft
Symboles :   Orages  Brouillard  Fortes neiges  Fortes précipitations  Vent > 20 kt






- Altitude de l'aérodrome : 2891 ft
- Code IATA : GCK


KGCK - Garden City Regional

DERNIER METAR :
  • 072154Z 20017G27KT 10SM CLR 14/03 A2993 RMK AO2 PK WND 20028/2144 SLP142 T01390028

METARs EXPIRÉS :
  • 072054Z 19017G26KT 10SM CLR 13/02 A2996 RMK AO2 PK WND 18026/1955 SLP150 T01330022 56037
  • 071954Z 20018G25KT 10SM CLR 13/02 A2998 RMK AO2 PK WND 20027/1857 SLP159 T01280022

TAF KGCK
Valide du 07 à 18h jusqu'au 08 à 18h UTC


071720Z 0718/0818 19016G25KT P6SM FEW250
FM072300 18014KT P6SM FEW250
FM080400 20009KT P6SM FEW250
FM080600 31008KT P6SM FEW250



MET'MAP, la Météo Aéronautique d'un coup d'oeil ! - Copyright ORBIFLY Décembre 2007 - Disclaimer

ORBIFLY MET'MAP TEAM :

Programmation & Développement : Alexandra Zaïnal
Sur une idée originale de : Baudouin d'Aumeries
Assistance à la programmation : Marc-Olivier Méhu
Soutien technique & logistique : Manuel Goepfert

Contact : metmap@orbifly.com




SOURCES & CREDITS :

   NOAA       Earth
Advisory